OING  Gorgan  Airport

Gorgan, Iran

Add Bookmark
ICAO OING
IATA GBT
Type Airport
Status Operational
Latitude
36° 54' 33" N
36.909401
Longitude
54° 24' 4" E
54.401299
Local (GMT +3.5 ) UTC
Oct 1, 2016 03:16 am Sep 30, 2016 23:46
Sunrise-Sunset Local UTC
Begin Civil Twilight 05:21 am 01:51
Sunrise 05:46 am 02:16
Sunset 05:36 pm 14:06
End Civil Twilight 06:02 pm 14:32
VFR
VFR
MVFR
MVFR
IFR
IFR
LIFR
LIFR
Unknown
Unavailable

Current Weather

METAR Observed VFR
OING 302200Z 00000KT 9999 SCT040 15/12 Q1021 Fri, Sep 30, 2016 @ 22:00 UTC
(1 Hour, 46 Minutes ago)
Visual Flight Rules
Wind Visibility Clouds Conditions
Calm 10 km or more
  • Scattered at 4,000 ft AGL
  • No significant weather
Temperatures Readings Precipitation
Current Temp
15°C
59°F
Dewpoint
12°C
54°F
Humidity 82%
Altimeter 30.15" Hg
Sea Level Pressure 1,021 mb
Field Elevation
155 m
509 ft
None Recorded

Additional weather within a 92.6km radius of OING

Map ICAO Location
OINK 72.6km E/NE (058°)
VFR
VFR
MVFR
MVFR
IFR
IFR
LIFR
LIFR
Unknown
Unavailable
-
-

CheckWX.com is intended as a tool to help pilots better visualize weather data. It is not intended as a substitute for an official weather briefing obtained from a Flight Service Station. CheckWX.com does not meet the FAA requirements for an official pre-flight weather briefing. Therefore, it's important that pilots still call and obtain an official FSS pre-flight weather briefing.

© 2007-2016 CheckWX.com
23:46:36 UTC